sensor_id;sensor_type;location;lat;lon;timestamp;P1;durP1;ratioP1;P2;durP2;ratioP2
72720;SDS011;60835;50.974;10.322;2023-05-10T00:00:17;8.00;;;3.17;;
72720;SDS011;60835;50.974;10.322;2023-05-10T00:02:44;12.68;;;3.70;;
72720;SDS011;60835;50.974;10.322;2023-05-10T00:05:11;7.00;;;3.67;;
72720;SDS011;60835;50.974;10.322;2023-05-10T00:07:37;7.70;;;3.38;;
72720;SDS011;60835;50.974;10.322;2023-05-10T00:10:04;9.20;;;3.33;;
72720;SDS011;60835;50.974;10.322;2023-05-10T00:12:31;7.18;;;3.08;;
72720;SDS011;60835;50.974;10.322;2023-05-10T00:14:57;7.30;;;3.42;;
72720;SDS011;60835;50.974;10.322;2023-05-10T00:17:24;6.95;;;3.53;;
72720;SDS011;60835;50.974;10.322;2023-05-10T00:19:51;9.15;;;3.60;;
72720;SDS011;60835;50.974;10.322;2023-05-10T00:22:17;8.07;;;3.38;;
72720;SDS011;60835;50.974;10.322;2023-05-10T00:24:44;5.28;;;3.25;;
72720;SDS011;60835;50.974;10.322;2023-05-10T00:27:10;8.85;;;3.45;;
72720;SDS011;60835;50.974;10.322;2023-05-10T00:29:37;6.60;;;3.40;;
72720;SDS011;60835;50.974;10.322;2023-05-10T00:32:04;5.55;;;3.42;;
72720;SDS011;60835;50.974;10.322;2023-05-10T00:34:30;5.78;;;3.40;;
72720;SDS011;60835;50.974;10.322;2023-05-10T00:36:57;4.40;;;3.15;;
72720;SDS011;60835;50.974;10.322;2023-05-10T00:39:24;6.78;;;3.60;;
72720;SDS011;60835;50.974;10.322;2023-05-10T00:41:52;7.07;;;3.10;;
72720;SDS011;60835;50.974;10.322;2023-05-10T00:44:19;4.53;;;2.95;;
72720;SDS011;60835;50.974;10.322;2023-05-10T00:46:45;6.25;;;3.15;;
72720;SDS011;60835;50.974;10.322;2023-05-10T00:49:13;6.32;;;3.00;;
72720;SDS011;60835;50.974;10.322;2023-05-10T00:51:40;5.40;;;3.05;;
72720;SDS011;60835;50.974;10.322;2023-05-10T00:54:09;10.05;;;3.35;;
72720;SDS011;60835;50.974;10.322;2023-05-10T00:56:40;5.25;;;3.00;;
72720;SDS011;60835;50.974;10.322;2023-05-10T00:59:09;5.90;;;3.15;;
72720;SDS011;60835;50.974;10.322;2023-05-10T01:01:36;6.93;;;3.40;;
72720;SDS011;60835;50.974;10.322;2023-05-10T01:04:04;8.95;;;3.25;;
72720;SDS011;60835;50.974;10.322;2023-05-10T01:06:30;7.97;;;3.35;;
72720;SDS011;60835;50.974;10.322;2023-05-10T01:08:57;5.25;;;2.97;;
72720;SDS011;60835;50.974;10.322;2023-05-10T01:11:24;5.28;;;3.33;;
72720;SDS011;60835;50.974;10.322;2023-05-10T01:13:52;7.20;;;3.03;;
72720;SDS011;60835;50.974;10.322;2023-05-10T01:16:22;5.90;;;2.80;;
72720;SDS011;60835;50.974;10.322;2023-05-10T01:18:51;5.93;;;3.03;;
72720;SDS011;60835;50.974;10.322;2023-05-10T01:21:38;6.47;;;3.38;;
72720;SDS011;60835;50.974;10.322;2023-05-10T01:35:17;7.63;;;3.42;;
72720;SDS011;60835;50.974;10.322;2023-05-10T01:37:56;5.90;;;3.28;;
72720;SDS011;60835;50.974;10.322;2023-05-10T01:40:48;5.25;;;3.35;;
72720;SDS011;60835;50.974;10.322;2023-05-10T01:43:28;6.35;;;3.38;;
72720;SDS011;60835;50.974;10.322;2023-05-10T01:45:59;6.68;;;4.03;;
72720;SDS011;60835;50.974;10.322;2023-05-10T01:48:51;4.10;;;3.40;;
72720;SDS011;60835;50.974;10.322;2023-05-10T01:51:21;4.32;;;3.55;;
72720;SDS011;60835;50.974;10.322;2023-05-10T01:53:51;5.05;;;3.70;;
72720;SDS011;60835;50.974;10.322;2023-05-10T01:56:25;9.45;;;3.83;;
72720;SDS011;60835;50.974;10.322;2023-05-10T01:58:53;8.50;;;4.00;;
72720;SDS011;60835;50.974;10.322;2023-05-10T02:01:21;11.70;;;4.38;;
72720;SDS011;60835;50.974;10.322;2023-05-10T02:03:52;8.23;;;3.70;;
72720;SDS011;60835;50.974;10.322;2023-05-10T02:06:21;5.13;;;3.78;;
72720;SDS011;60835;50.974;10.322;2023-05-10T02:08:50;5.70;;;3.83;;
72720;SDS011;60835;50.974;10.322;2023-05-10T02:11:19;6.03;;;3.90;;
72720;SDS011;60835;50.974;10.322;2023-05-10T02:13:48;7.03;;;4.32;;
72720;SDS011;60835;50.974;10.322;2023-05-10T02:16:16;6.68;;;3.95;;
72720;SDS011;60835;50.974;10.322;2023-05-10T02:18:44;5.85;;;3.63;;
72720;SDS011;60835;50.974;10.322;2023-05-10T02:21:13;8.38;;;4.22;;
72720;SDS011;60835;50.974;10.322;2023-05-10T02:23:42;8.18;;;4.13;;
72720;SDS011;60835;50.974;10.322;2023-05-10T02:26:09;7.72;;;4.85;;
72720;SDS011;60835;50.974;10.322;2023-05-10T02:28:38;6.85;;;4.00;;
72720;SDS011;60835;50.974;10.322;2023-05-10T02:31:06;6.68;;;4.30;;
72720;SDS011;60835;50.974;10.322;2023-05-10T02:33:36;7.25;;;4.10;;
72720;SDS011;60835;50.974;10.322;2023-05-10T02:36:07;7.63;;;3.90;;
72720;SDS011;60835;50.974;10.322;2023-05-10T02:38:35;6.50;;;4.47;;
72720;SDS011;60835;50.974;10.322;2023-05-10T02:41:02;5.75;;;3.92;;
72720;SDS011;60835;50.974;10.322;2023-05-10T02:43:32;9.80;;;4.32;;
72720;SDS011;60835;50.974;10.322;2023-05-10T02:46:00;5.88;;;4.18;;
72720;SDS011;60835;50.974;10.322;2023-05-10T02:48:27;5.95;;;4.30;;
72720;SDS011;60835;50.974;10.322;2023-05-10T02:50:54;5.53;;;4.43;;
72720;SDS011;60835;50.974;10.322;2023-05-10T02:53:33;7.75;;;4.25;;
72720;SDS011;60835;50.974;10.322;2023-05-10T02:56:05;5.25;;;4.60;;
72720;SDS011;60835;50.974;10.322;2023-05-10T02:58:39;6.72;;;4.50;;
72720;SDS011;60835;50.974;10.322;2023-05-10T03:01:06;7.60;;;4.03;;
72720;SDS011;60835;50.974;10.322;2023-05-10T03:03:34;9.38;;;4.88;;
72720;SDS011;60835;50.974;10.322;2023-05-10T03:06:00;6.32;;;4.15;;
72720;SDS011;60835;50.974;10.322;2023-05-10T03:08:27;9.57;;;4.50;;
72720;SDS011;60835;50.974;10.322;2023-05-10T03:14:21;10.20;;;4.40;;
72720;SDS011;60835;50.974;10.322;2023-05-10T03:17:04;6.38;;;4.40;;
72720;SDS011;60835;50.974;10.322;2023-05-10T03:19:40;6.47;;;4.20;;
72720;SDS011;60835;50.974;10.322;2023-05-10T03:22:13;5.95;;;4.13;;
72720;SDS011;60835;50.974;10.322;2023-05-10T03:24:44;6.70;;;4.90;;
72720;SDS011;60835;50.974;10.322;2023-05-10T03:27:13;8.15;;;4.82;;
72720;SDS011;60835;50.974;10.322;2023-05-10T03:29:41;6.32;;;4.38;;
72720;SDS011;60835;50.974;10.322;2023-05-10T03:32:09;8.45;;;4.82;;
72720;SDS011;60835;50.974;10.322;2023-05-10T03:34:40;9.60;;;5.25;;
72720;SDS011;60835;50.974;10.322;2023-05-10T03:37:07;6.65;;;5.05;;
72720;SDS011;60835;50.974;10.322;2023-05-10T03:39:34;6.53;;;4.90;;
72720;SDS011;60835;50.974;10.322;2023-05-10T03:42:01;6.55;;;5.00;;
72720;SDS011;60835;50.974;10.322;2023-05-10T03:44:28;5.80;;;4.95;;
72720;SDS011;60835;50.974;10.322;2023-05-10T03:46:54;8.38;;;4.88;;
72720;SDS011;60835;50.974;10.322;2023-05-10T03:49:23;6.38;;;4.78;;
72720;SDS011;60835;50.974;10.322;2023-05-10T03:51:50;9.77;;;5.47;;
72720;SDS011;60835;50.974;10.322;2023-05-10T03:54:16;6.75;;;4.95;;
72720;SDS011;60835;50.974;10.322;2023-05-10T03:56:43;11.85;;;5.40;;
72720;SDS011;60835;50.974;10.322;2023-05-10T03:59:09;9.93;;;5.15;;
72720;SDS011;60835;50.974;10.322;2023-05-10T04:01:36;6.15;;;4.85;;
72720;SDS011;60835;50.974;10.322;2023-05-10T04:04:03;8.45;;;5.32;;
72720;SDS011;60835;50.974;10.322;2023-05-10T04:06:30;9.02;;;5.07;;
72720;SDS011;60835;50.974;10.322;2023-05-10T04:08:57;6.50;;;4.80;;
72720;SDS011;60835;50.974;10.322;2023-05-10T04:11:26;13.38;;;5.78;;
72720;SDS011;60835;50.974;10.322;2023-05-10T04:13:52;8.80;;;5.32;;
72720;SDS011;60835;50.974;10.322;2023-05-10T04:16:19;16.05;;;6.95;;
72720;SDS011;60835;50.974;10.322;2023-05-10T04:18:45;13.95;;;10.15;;
72720;SDS011;60835;50.974;10.322;2023-05-10T04:21:12;8.82;;;6.47;;
72720;SDS011;60835;50.974;10.322;2023-05-10T04:23:39;7.80;;;5.22;;
72720;SDS011;60835;50.974;10.322;2023-05-10T04:26:06;6.70;;;4.60;;
72720;SDS011;60835;50.974;10.322;2023-05-10T04:28:33;5.10;;;3.83;;
72720;SDS011;60835;50.974;10.322;2023-05-10T04:31:06;7.57;;;3.70;;
72720;SDS011;60835;50.974;10.322;2023-05-10T04:33:34;8.00;;;3.85;;
72720;SDS011;60835;50.974;10.322;2023-05-10T04:36:01;9.05;;;3.90;;
72720;SDS011;60835;50.974;10.322;2023-05-10T04:38:29;3.72;;;3.30;;
72720;SDS011;60835;50.974;10.322;2023-05-10T04:41:09;5.22;;;3.28;;
72720;SDS011;60835;50.974;10.322;2023-05-10T04:43:36;5.88;;;3.00;;
72720;SDS011;60835;50.974;10.322;2023-05-10T04:46:04;6.20;;;3.20;;
72720;SDS011;60835;50.974;10.322;2023-05-10T04:48:31;6.63;;;3.38;;
72720;SDS011;60835;50.974;10.322;2023-05-10T04:50:58;3.00;;;2.67;;
72720;SDS011;60835;50.974;10.322;2023-05-10T04:53:24;7.35;;;3.00;;
72720;SDS011;60835;50.974;10.322;2023-05-10T04:55:51;5.88;;;3.65;;
72720;SDS011;60835;50.974;10.322;2023-05-10T04:58:18;4.85;;;2.90;;
72720;SDS011;60835;50.974;10.322;2023-05-10T05:00:44;4.63;;;2.90;;
72720;SDS011;60835;50.974;10.322;2023-05-10T05:03:11;4.90;;;3.22;;
72720;SDS011;60835;50.974;10.322;2023-05-10T05:05:38;8.23;;;3.58;;
72720;SDS011;60835;50.974;10.322;2023-05-10T05:08:04;4.75;;;2.92;;
72720;SDS011;60835;50.974;10.322;2023-05-10T05:10:31;3.58;;;2.20;;
72720;SDS011;60835;50.974;10.322;2023-05-10T05:12:58;4.13;;;2.80;;
72720;SDS011;60835;50.974;10.322;2023-05-10T05:15:24;5.40;;;2.50;;
72720;SDS011;60835;50.974;10.322;2023-05-10T05:17:51;4.95;;;2.70;;
72720;SDS011;60835;50.974;10.322;2023-05-10T05:20:18;3.15;;;2.67;;
72720;SDS011;60835;50.974;10.322;2023-05-10T05:22:45;3.00;;;2.70;;
72720;SDS011;60835;50.974;10.322;2023-05-10T05:25:11;4.03;;;2.80;;
72720;SDS011;60835;50.974;10.322;2023-05-10T05:27:38;3.13;;;2.60;;
72720;SDS011;60835;50.974;10.322;2023-05-10T05:30:05;8.25;;;2.72;;
72720;SDS011;60835;50.974;10.322;2023-05-10T05:32:32;4.57;;;2.92;;
72720;SDS011;60835;50.974;10.322;2023-05-10T05:34:59;10.25;;;2.85;;
72720;SDS011;60835;50.974;10.322;2023-05-10T05:37:25;3.30;;;2.90;;
72720;SDS011;60835;50.974;10.322;2023-05-10T05:39:52;4.20;;;2.83;;
72720;SDS011;60835;50.974;10.322;2023-05-10T05:42:20;3.05;;;2.63;;
72720;SDS011;60835;50.974;10.322;2023-05-10T05:44:47;9.30;;;3.15;;
72720;SDS011;60835;50.974;10.322;2023-05-10T05:47:13;3.70;;;2.70;;
72720;SDS011;60835;50.974;10.322;2023-05-10T05:49:40;6.25;;;2.85;;
72720;SDS011;60835;50.974;10.322;2023-05-10T05:52:07;4.05;;;3.30;;
72720;SDS011;60835;50.974;10.322;2023-05-10T05:54:33;4.47;;;2.78;;
72720;SDS011;60835;50.974;10.322;2023-05-10T05:57:00;5.93;;;2.58;;
72720;SDS011;60835;50.974;10.322;2023-05-10T05:59:27;2.78;;;2.10;;
72720;SDS011;60835;50.974;10.322;2023-05-10T06:01:54;3.35;;;2.42;;
72720;SDS011;60835;50.974;10.322;2023-05-10T06:04:21;4.80;;;2.70;;
72720;SDS011;60835;50.974;10.322;2023-05-10T06:06:47;3.75;;;2.63;;
72720;SDS011;60835;50.974;10.322;2023-05-10T06:09:14;3.58;;;2.22;;
72720;SDS011;60835;50.974;10.322;2023-05-10T06:11:41;4.30;;;1.90;;
72720;SDS011;60835;50.974;10.322;2023-05-10T06:14:07;2.40;;;2.03;;
72720;SDS011;60835;50.974;10.322;2023-05-10T06:16:34;3.22;;;2.17;;
72720;SDS011;60835;50.974;10.322;2023-05-10T06:19:01;1.65;;;1.40;;
72720;SDS011;60835;50.974;10.322;2023-05-10T06:21:29;4.00;;;2.05;;
72720;SDS011;60835;50.974;10.322;2023-05-10T06:23:56;2.70;;;1.70;;
72720;SDS011;60835;50.974;10.322;2023-05-10T06:26:23;2.40;;;1.77;;
72720;SDS011;60835;50.974;10.322;2023-05-10T06:28:49;4.38;;;3.10;;
72720;SDS011;60835;50.974;10.322;2023-05-10T06:31:16;5.30;;;2.35;;
72720;SDS011;60835;50.974;10.322;2023-05-10T06:33:43;1.40;;;1.30;;
72720;SDS011;60835;50.974;10.322;2023-05-10T06:36:09;1.58;;;1.15;;
72720;SDS011;60835;50.974;10.322;2023-05-10T06:38:36;1.15;;;1.05;;
72720;SDS011;60835;50.974;10.322;2023-05-10T06:41:03;0.60;;;0.60;;
72720;SDS011;60835;50.974;10.322;2023-05-10T06:43:30;1.00;;;0.90;;
72720;SDS011;60835;50.974;10.322;2023-05-10T06:45:56;2.05;;;0.73;;
72720;SDS011;60835;50.974;10.322;2023-05-10T06:48:24;0.75;;;0.60;;
72720;SDS011;60835;50.974;10.322;2023-05-10T06:50:50;0.95;;;0.68;;
72720;SDS011;60835;50.974;10.322;2023-05-10T06:53:17;0.80;;;0.70;;
72720;SDS011;60835;50.974;10.322;2023-05-10T06:55:44;0.40;;;0.40;;
72720;SDS011;60835;50.974;10.322;2023-05-10T06:58:10;0.60;;;0.60;;
72720;SDS011;60835;50.974;10.322;2023-05-10T07:00:37;1.63;;;1.05;;
72720;SDS011;60835;50.974;10.322;2023-05-10T07:03:06;0.32;;;0.32;;
72720;SDS011;60835;50.974;10.322;2023-05-10T07:05:33;0.50;;;0.50;;
72720;SDS011;60835;50.974;10.322;2023-05-10T07:08:00;0.30;;;0.30;;
72720;SDS011;60835;50.974;10.322;2023-05-10T07:10:27;0.52;;;0.32;;
72720;SDS011;60835;50.974;10.322;2023-05-10T07:12:54;0.28;;;0.28;;
72720;SDS011;60835;50.974;10.322;2023-05-10T07:15:21;1.83;;;0.70;;
72720;SDS011;60835;50.974;10.322;2023-05-10T07:17:48;1.75;;;0.52;;
72720;SDS011;60835;50.974;10.322;2023-05-10T07:20:15;0.73;;;0.50;;
72720;SDS011;60835;50.974;10.322;2023-05-10T07:22:42;0.98;;;0.57;;
72720;SDS011;60835;50.974;10.322;2023-05-10T07:25:08;0.50;;;0.38;;
72720;SDS011;60835;50.974;10.322;2023-05-10T07:27:35;3.33;;;0.90;;
72720;SDS011;60835;50.974;10.322;2023-05-10T07:30:02;1.25;;;0.47;;
72720;SDS011;60835;50.974;10.322;2023-05-10T07:32:29;2.53;;;0.55;;
72720;SDS011;60835;50.974;10.322;2023-05-10T07:34:55;0.90;;;0.50;;
72720;SDS011;60835;50.974;10.322;2023-05-10T07:37:22;0.30;;;0.30;;
72720;SDS011;60835;50.974;10.322;2023-05-10T07:39:49;1.73;;;0.35;;
72720;SDS011;60835;50.974;10.322;2023-05-10T07:42:16;0.30;;;0.30;;
72720;SDS011;60835;50.974;10.322;2023-05-10T07:44:43;0.38;;;0.30;;
72720;SDS011;60835;50.974;10.322;2023-05-10T07:47:09;3.03;;;0.50;;
72720;SDS011;60835;50.974;10.322;2023-05-10T07:49:36;0.30;;;0.30;;
72720;SDS011;60835;50.974;10.322;2023-05-10T07:52:03;0.63;;;0.50;;
72720;SDS011;60835;50.974;10.322;2023-05-10T07:54:29;0.40;;;0.40;;
72720;SDS011;60835;50.974;10.322;2023-05-10T07:56:56;4.97;;;0.45;;
72720;SDS011;60835;50.974;10.322;2023-05-10T07:59:22;1.45;;;0.70;;
72720;SDS011;60835;50.974;10.322;2023-05-10T08:01:49;0.77;;;0.60;;
72720;SDS011;60835;50.974;10.322;2023-05-10T08:04:16;0.50;;;0.45;;
72720;SDS011;60835;50.974;10.322;2023-05-10T08:06:42;0.60;;;0.60;;
72720;SDS011;60835;50.974;10.322;2023-05-10T08:09:13;2.95;;;0.90;;
72720;SDS011;60835;50.974;10.322;2023-05-10T08:11:39;0.30;;;0.30;;
72720;SDS011;60835;50.974;10.322;2023-05-10T08:14:06;1.15;;;0.57;;
72720;SDS011;60835;50.974;10.322;2023-05-10T08:16:33;0.98;;;0.60;;
72720;SDS011;60835;50.974;10.322;2023-05-10T08:19:00;1.45;;;0.63;;
72720;SDS011;60835;50.974;10.322;2023-05-10T08:21:27;0.63;;;0.60;;
72720;SDS011;60835;50.974;10.322;2023-05-10T08:23:54;0.77;;;0.75;;
72720;SDS011;60835;50.974;10.322;2023-05-10T08:26:21;2.20;;;0.65;;
72720;SDS011;60835;50.974;10.322;2023-05-10T08:28:48;0.50;;;0.50;;
72720;SDS011;60835;50.974;10.322;2023-05-10T08:31:15;1.90;;;0.70;;
72720;SDS011;60835;50.974;10.322;2023-05-10T08:33:42;2.03;;;0.75;;
72720;SDS011;60835;50.974;10.322;2023-05-10T08:36:10;6.22;;;0.73;;
72720;SDS011;60835;50.974;10.322;2023-05-10T08:38:37;5.00;;;0.80;;
72720;SDS011;60835;50.974;10.322;2023-05-10T08:41:04;0.57;;;0.50;;
72720;SDS011;60835;50.974;10.322;2023-05-10T08:43:32;2.88;;;0.95;;
72720;SDS011;60835;50.974;10.322;2023-05-10T08:46:01;2.47;;;0.55;;
72720;SDS011;60835;50.974;10.322;2023-05-10T08:48:31;1.52;;;0.80;;
72720;SDS011;60835;50.974;10.322;2023-05-10T08:51:00;0.52;;;0.50;;
72720;SDS011;60835;50.974;10.322;2023-05-10T08:53:29;0.70;;;0.50;;
72720;SDS011;60835;50.974;10.322;2023-05-10T08:56:00;2.92;;;0.80;;
72720;SDS011;60835;50.974;10.322;2023-05-10T08:58:30;0.77;;;0.50;;
72720;SDS011;60835;50.974;10.322;2023-05-10T09:00:58;0.98;;;0.68;;
72720;SDS011;60835;50.974;10.322;2023-05-10T09:03:25;6.60;;;1.20;;
72720;SDS011;60835;50.974;10.322;2023-05-10T09:05:52;2.40;;;1.10;;
72720;SDS011;60835;50.974;10.322;2023-05-10T09:08:19;1.00;;;0.80;;
72720;SDS011;60835;50.974;10.322;2023-05-10T09:10:46;2.65;;;1.60;;
72720;SDS011;60835;50.974;10.322;2023-05-10T09:13:14;1.50;;;1.40;;
72720;SDS011;60835;50.974;10.322;2023-05-10T09:15:43;2.47;;;0.80;;
72720;SDS011;60835;50.974;10.322;2023-05-10T09:18:10;1.70;;;0.60;;
72720;SDS011;60835;50.974;10.322;2023-05-10T09:20:37;0.80;;;0.80;;
72720;SDS011;60835;50.974;10.322;2023-05-10T09:23:04;1.98;;;1.15;;
72720;SDS011;60835;50.974;10.322;2023-05-10T09:25:31;7.80;;;3.53;;
72720;SDS011;60835;50.974;10.322;2023-05-10T09:27:59;4.50;;;2.10;;
72720;SDS011;60835;50.974;10.322;2023-05-10T09:32:54;1.38;;;0.93;;
72720;SDS011;60835;50.974;10.322;2023-05-10T09:35:24;2.45;;;1.50;;
72720;SDS011;60835;50.974;10.322;2023-05-10T09:37:55;1.20;;;1.08;;
72720;SDS011;60835;50.974;10.322;2023-05-10T09:40:24;8.27;;;3.88;;
72720;SDS011;60835;50.974;10.322;2023-05-10T09:45:18;0.63;;;0.63;;
72720;SDS011;60835;50.974;10.322;2023-05-10T09:47:45;2.72;;;1.10;;
72720;SDS011;60835;50.974;10.322;2023-05-10T09:50:12;2.28;;;1.30;;
72720;SDS011;60835;50.974;10.322;2023-05-10T09:52:49;1.73;;;1.20;;
72720;SDS011;60835;50.974;10.322;2023-05-10T09:55:21;1.25;;;0.90;;
72720;SDS011;60835;50.974;10.322;2023-05-10T09:57:58;4.20;;;1.40;;
72720;SDS011;60835;50.974;10.322;2023-05-10T10:00:26;6.85;;;1.25;;
72720;SDS011;60835;50.974;10.322;2023-05-10T10:02:55;1.35;;;1.25;;
72720;SDS011;60835;50.974;10.322;2023-05-10T10:07:59;9.00;;;1.70;;
72720;SDS011;60835;50.974;10.322;2023-05-10T10:10:28;4.95;;;1.50;;
72720;SDS011;60835;50.974;10.322;2023-05-10T10:12:55;4.80;;;1.85;;
72720;SDS011;60835;50.974;10.322;2023-05-10T10:15:22;3.42;;;1.88;;
72720;SDS011;60835;50.974;10.322;2023-05-10T10:17:50;4.00;;;2.42;;
72720;SDS011;60835;50.974;10.322;2023-05-10T10:20:18;7.20;;;3.22;;
72720;SDS011;60835;50.974;10.322;2023-05-10T10:22:46;3.67;;;2.20;;
72720;SDS011;60835;50.974;10.322;2023-05-10T10:25:15;5.68;;;2.05;;
72720;SDS011;60835;50.974;10.322;2023-05-10T10:30:35;1.45;;;1.27;;
72720;SDS011;60835;50.974;10.322;2023-05-10T10:35:58;3.70;;;1.35;;
72720;SDS011;60835;50.974;10.322;2023-05-10T10:41:56;1.50;;;1.40;;
72720;SDS011;60835;50.974;10.322;2023-05-10T10:49:51;4.13;;;1.13;;
72720;SDS011;60835;50.974;10.322;2023-05-10T10:52:28;2.83;;;1.60;;
72720;SDS011;60835;50.974;10.322;2023-05-10T10:57:42;5.78;;;2.42;;
72720;SDS011;60835;50.974;10.322;2023-05-10T11:02:52;1.98;;;1.52;;
72720;SDS011;60835;50.974;10.322;2023-05-10T11:05:27;1.63;;;1.00;;
72720;SDS011;60835;50.974;10.322;2023-05-10T11:08:00;1.75;;;0.88;;
72720;SDS011;60835;50.974;10.322;2023-05-10T11:10:37;5.82;;;1.42;;
72720;SDS011;60835;50.974;10.322;2023-05-10T11:13:05;3.08;;;1.25;;
72720;SDS011;60835;50.974;10.322;2023-05-10T11:15:40;6.22;;;1.70;;
72720;SDS011;60835;50.974;10.322;2023-05-10T11:18:21;2.83;;;1.73;;
72720;SDS011;60835;50.974;10.322;2023-05-10T11:20:51;3.83;;;1.30;;
72720;SDS011;60835;50.974;10.322;2023-05-10T11:23:29;1.30;;;1.10;;
72720;SDS011;60835;50.974;10.322;2023-05-10T11:26:13;4.53;;;1.20;;
72720;SDS011;60835;50.974;10.322;2023-05-10T11:28:41;1.40;;;1.17;;
72720;SDS011;60835;50.974;10.322;2023-05-10T11:31:18;4.78;;;2.70;;
72720;SDS011;60835;50.974;10.322;2023-05-10T11:33:46;5.53;;;1.40;;
72720;SDS011;60835;50.974;10.322;2023-05-10T11:36:15;2.13;;;1.80;;
72720;SDS011;60835;50.974;10.322;2023-05-10T11:38:46;8.88;;;1.45;;
72720;SDS011;60835;50.974;10.322;2023-05-10T11:41:14;1.20;;;1.10;;
72720;SDS011;60835;50.974;10.322;2023-05-10T11:43:42;2.00;;;1.10;;
72720;SDS011;60835;50.974;10.322;2023-05-10T11:46:13;4.43;;;2.78;;
72720;SDS011;60835;50.974;10.322;2023-05-10T11:48:40;2.58;;;1.67;;
72720;SDS011;60835;50.974;10.322;2023-05-10T11:51:09;1.88;;;1.35;;
72720;SDS011;60835;50.974;10.322;2023-05-10T11:53:36;1.20;;;1.10;;
72720;SDS011;60835;50.974;10.322;2023-05-10T11:56:07;3.38;;;1.30;;
72720;SDS011;60835;50.974;10.322;2023-05-10T11:58:35;1.65;;;1.13;;
72720;SDS011;60835;50.974;10.322;2023-05-10T12:01:03;4.45;;;1.90;;
72720;SDS011;60835;50.974;10.322;2023-05-10T12:03:31;2.60;;;2.03;;
72720;SDS011;60835;50.974;10.322;2023-05-10T12:05:58;3.53;;;1.45;;
72720;SDS011;60835;50.974;10.322;2023-05-10T12:08:26;5.40;;;1.48;;
72720;SDS011;60835;50.974;10.322;2023-05-10T12:11:04;2.92;;;1.50;;
72720;SDS011;60835;50.974;10.322;2023-05-10T12:13:38;2.95;;;0.98;;
72720;SDS011;60835;50.974;10.322;2023-05-10T12:16:39;1.95;;;1.50;;
72720;SDS011;60835;50.974;10.322;2023-05-10T12:18:59;3.88;;;1.17;;
72720;SDS011;60835;50.974;10.322;2023-05-10T12:21:30;3.40;;;1.05;;
72720;SDS011;60835;50.974;10.322;2023-05-10T12:24:01;3.03;;;1.20;;
72720;SDS011;60835;50.974;10.322;2023-05-10T12:26:29;2.90;;;1.10;;
72720;SDS011;60835;50.974;10.322;2023-05-10T12:29:17;1.85;;;1.10;;
72720;SDS011;60835;50.974;10.322;2023-05-10T12:34:34;2.25;;;1.00;;
72720;SDS011;60835;50.974;10.322;2023-05-10T12:37:02;1.42;;;1.25;;
72720;SDS011;60835;50.974;10.322;2023-05-10T12:39:42;1.95;;;1.20;;
72720;SDS011;60835;50.974;10.322;2023-05-10T12:42:11;2.30;;;1.60;;
72720;SDS011;60835;50.974;10.322;2023-05-10T12:44:38;2.88;;;1.42;;
72720;SDS011;60835;50.974;10.322;2023-05-10T12:47:05;1.63;;;1.17;;
72720;SDS011;60835;50.974;10.322;2023-05-10T12:49:32;6.43;;;1.70;;
72720;SDS011;60835;50.974;10.322;2023-05-10T12:51:59;1.30;;;0.98;;
72720;SDS011;60835;50.974;10.322;2023-05-10T12:54:25;5.85;;;1.20;;
72720;SDS011;60835;50.974;10.322;2023-05-10T12:56:52;1.35;;;1.02;;
72720;SDS011;60835;50.974;10.322;2023-05-10T12:59:18;1.60;;;1.17;;
72720;SDS011;60835;50.974;10.322;2023-05-10T13:01:45;1.92;;;1.08;;
72720;SDS011;60835;50.974;10.322;2023-05-10T13:04:12;2.10;;;1.05;;
72720;SDS011;60835;50.974;10.322;2023-05-10T13:06:38;1.10;;;0.98;;
72720;SDS011;60835;50.974;10.322;2023-05-10T13:09:05;2.63;;;1.23;;
72720;SDS011;60835;50.974;10.322;2023-05-10T13:11:31;3.58;;;0.93;;
72720;SDS011;60835;50.974;10.322;2023-05-10T13:13:58;1.73;;;1.25;;
72720;SDS011;60835;50.974;10.322;2023-05-10T13:16:25;23.63;;;13.95;;
72720;SDS011;60835;50.974;10.322;2023-05-10T13:18:52;35.35;;;22.85;;
72720;SDS011;60835;50.974;10.322;2023-05-10T13:21:18;24.20;;;15.85;;
72720;SDS011;60835;50.974;10.322;2023-05-10T13:23:45;16.13;;;8.77;;
72720;SDS011;60835;50.974;10.322;2023-05-10T13:26:12;11.52;;;5.40;;
72720;SDS011;60835;50.974;10.322;2023-05-10T13:28:39;2.60;;;1.85;;
72720;SDS011;60835;50.974;10.322;2023-05-10T13:31:06;2.08;;;1.52;;
72720;SDS011;60835;50.974;10.322;2023-05-10T13:33:33;3.22;;;1.30;;
72720;SDS011;60835;50.974;10.322;2023-05-10T13:36:00;4.93;;;1.45;;
72720;SDS011;60835;50.974;10.322;2023-05-10T13:38:27;2.42;;;1.90;;
72720;SDS011;60835;50.974;10.322;2023-05-10T13:40:53;2.42;;;2.05;;
72720;SDS011;60835;50.974;10.322;2023-05-10T13:43:20;3.03;;;0.90;;
72720;SDS011;60835;50.974;10.322;2023-05-10T13:45:46;2.05;;;1.27;;
72720;SDS011;60835;50.974;10.322;2023-05-10T13:48:13;3.78;;;1.70;;
72720;SDS011;60835;50.974;10.322;2023-05-10T13:50:39;4.30;;;2.10;;
72720;SDS011;60835;50.974;10.322;2023-05-10T13:53:06;2.33;;;1.50;;
72720;SDS011;60835;50.974;10.322;2023-05-10T13:55:33;5.50;;;1.15;;
72720;SDS011;60835;50.974;10.322;2023-05-10T13:57:59;2.10;;;1.10;;
72720;SDS011;60835;50.974;10.322;2023-05-10T14:00:26;4.53;;;1.23;;
72720;SDS011;60835;50.974;10.322;2023-05-10T14:02:53;1.30;;;1.20;;
72720;SDS011;60835;50.974;10.322;2023-05-10T14:05:20;3.65;;;1.08;;
72720;SDS011;60835;50.974;10.322;2023-05-10T14:07:51;3.88;;;1.25;;
72720;SDS011;60835;50.974;10.322;2023-05-10T14:10:17;1.40;;;0.95;;
72720;SDS011;60835;50.974;10.322;2023-05-10T14:12:44;4.82;;;1.30;;
72720;SDS011;60835;50.974;10.322;2023-05-10T14:15:11;1.25;;;1.15;;
72720;SDS011;60835;50.974;10.322;2023-05-10T14:17:37;3.47;;;1.48;;
72720;SDS011;60835;50.974;10.322;2023-05-10T14:20:04;2.28;;;1.00;;
72720;SDS011;60835;50.974;10.322;2023-05-10T14:22:32;1.85;;;1.02;;
72720;SDS011;60835;50.974;10.322;2023-05-10T14:24:58;5.57;;;1.02;;
72720;SDS011;60835;50.974;10.322;2023-05-10T14:27:25;3.15;;;1.02;;
72720;SDS011;60835;50.974;10.322;2023-05-10T14:29:52;3.63;;;0.90;;
72720;SDS011;60835;50.974;10.322;2023-05-10T14:32:19;2.35;;;0.95;;
72720;SDS011;60835;50.974;10.322;2023-05-10T14:34:46;4.10;;;1.02;;
72720;SDS011;60835;50.974;10.322;2023-05-10T14:37:13;3.83;;;1.10;;
72720;SDS011;60835;50.974;10.322;2023-05-10T14:39:40;0.75;;;0.75;;
72720;SDS011;60835;50.974;10.322;2023-05-10T14:42:08;7.05;;;1.38;;
72720;SDS011;60835;50.974;10.322;2023-05-10T14:44:35;2.22;;;1.25;;
72720;SDS011;60835;50.974;10.322;2023-05-10T14:47:01;3.83;;;1.10;;
72720;SDS011;60835;50.974;10.322;2023-05-10T14:49:28;2.45;;;1.30;;
72720;SDS011;60835;50.974;10.322;2023-05-10T14:51:55;4.97;;;1.60;;
72720;SDS011;60835;50.974;10.322;2023-05-10T14:54:22;6.60;;;1.63;;
72720;SDS011;60835;50.974;10.322;2023-05-10T14:56:48;6.05;;;1.88;;
72720;SDS011;60835;50.974;10.322;2023-05-10T14:59:16;6.97;;;2.45;;
72720;SDS011;60835;50.974;10.322;2023-05-10T15:01:43;3.95;;;1.60;;
72720;SDS011;60835;50.974;10.322;2023-05-10T15:04:10;12.10;;;5.05;;
72720;SDS011;60835;50.974;10.322;2023-05-10T15:06:39;8.40;;;2.17;;
72720;SDS011;60835;50.974;10.322;2023-05-10T15:09:07;26.00;;;12.65;;
72720;SDS011;60835;50.974;10.322;2023-05-10T15:11:33;26.13;;;13.63;;
72720;SDS011;60835;50.974;10.322;2023-05-10T15:14:00;20.45;;;10.45;;
72720;SDS011;60835;50.974;10.322;2023-05-10T15:16:27;26.40;;;13.70;;
72720;SDS011;60835;50.974;10.322;2023-05-10T15:18:54;12.88;;;6.90;;
72720;SDS011;60835;50.974;10.322;2023-05-10T15:21:21;6.75;;;2.33;;
72720;SDS011;60835;50.974;10.322;2023-05-10T15:23:48;2.70;;;1.58;;